createdAt,value
2022-12-07T00:01:19.569Z,93.80
2022-12-07T00:02:51.704Z,93.94
2022-12-07T00:04:23.748Z,93.97
2022-12-07T00:05:59.092Z,93.92
2022-12-07T00:07:31.102Z,94.12
2022-12-07T00:09:04.304Z,94.16
2022-12-07T00:10:36.319Z,94.10
2022-12-07T00:12:08.550Z,94.04
2022-12-07T00:13:41.090Z,94.10
2022-12-07T00:15:13.155Z,94.00
2022-12-07T00:16:46.202Z,94.02
2022-12-07T00:18:18.275Z,93.98
2022-12-07T00:19:50.274Z,93.91
2022-12-07T00:21:27.826Z,93.75
2022-12-07T00:23:00.074Z,93.65
2022-12-07T00:24:32.021Z,93.63
2022-12-07T00:26:16.345Z,93.67
2022-12-07T00:27:48.350Z,93.54
2022-12-07T00:29:22.980Z,93.56
2022-12-07T00:31:01.834Z,93.54
2022-12-07T00:32:33.850Z,93.40
2022-12-07T00:34:07.357Z,93.48
2022-12-07T00:35:39.410Z,93.53
2022-12-07T00:37:11.367Z,93.52
2022-12-07T00:38:43.662Z,93.67
2022-12-07T00:40:15.898Z,93.81
2022-12-07T00:41:47.899Z,93.95
2022-12-07T00:43:20.630Z,93.82
2022-12-07T00:44:52.738Z,94.10
2022-12-07T00:46:25.601Z,93.79
2022-12-07T00:47:57.571Z,94.22
2022-12-07T00:49:29.604Z,94.10
2022-12-07T00:51:01.993Z,94.17
2022-12-07T00:52:34.018Z,94.07
2022-12-07T00:54:06.030Z,94.25
2022-12-07T00:55:38.701Z,94.16
2022-12-07T00:57:10.702Z,94.19
2022-12-07T00:58:42.695Z,93.97
2022-12-07T01:00:15.092Z,94.06
2022-12-07T01:01:47.347Z,94.09
2022-12-07T01:03:19.505Z,94.11
2022-12-07T01:04:51.589Z,94.05
2022-12-07T01:06:25.255Z,94.30
2022-12-07T01:07:57.349Z,94.10
2022-12-07T01:09:29.397Z,94.00
2022-12-07T01:11:06.868Z,94.22
2022-12-07T01:12:38.924Z,94.00
2022-12-07T01:14:11.039Z,93.99
2022-12-07T01:15:44.568Z,94.09
2022-12-07T01:17:16.485Z,93.67
2022-12-07T01:18:50.679Z,93.85
2022-12-07T01:20:23.044Z,93.94
2022-12-07T01:21:55.020Z,93.88
2022-12-07T01:23:27.017Z,93.88
2022-12-07T01:24:58.950Z,94.17
2022-12-07T01:26:31.011Z,93.99
2022-12-07T01:28:02.943Z,94.28
2022-12-07T01:29:34.841Z,94.16
2022-12-07T01:31:18.731Z,94.28
2022-12-07T01:32:50.939Z,94.11
2022-12-07T01:34:23.028Z,94.14
2022-12-07T01:35:54.988Z,93.96
2022-12-07T01:37:27.073Z,94.34
2022-12-07T01:39:01.467Z,94.26
2022-12-07T01:40:33.580Z,94.27
2022-12-07T01:42:05.656Z,94.51
2022-12-07T01:43:38.017Z,94.43
2022-12-07T01:45:19.396Z,94.17
2022-12-07T01:46:57.232Z,94.16
2022-12-07T01:48:32.202Z,94.13
2022-12-07T01:50:04.661Z,94.12
2022-12-07T01:51:37.734Z,94.34
2022-12-07T01:53:10.638Z,94.26
2022-12-07T01:54:44.164Z,94.10
2022-12-07T01:56:17.436Z,93.78
2022-12-07T01:57:52.259Z,94.05
2022-12-07T01:59:27.326Z,94.04
2022-12-07T02:00:59.380Z,93.97
2022-12-07T02:02:34.793Z,93.99
2022-12-07T02:04:07.500Z,93.87
2022-12-07T02:05:42.199Z,93.79
2022-12-07T02:07:14.232Z,93.80
2022-12-07T02:08:46.698Z,93.55
2022-12-07T02:10:20.168Z,93.67
2022-12-07T02:11:52.132Z,93.74
2022-12-07T02:13:29.562Z,93.95
2022-12-07T02:15:01.508Z,93.59
2022-12-07T02:16:43.626Z,93.54
2022-12-07T02:18:57.050Z,93.56
2022-12-07T02:20:35.422Z,93.55
2022-12-07T02:22:25.833Z,93.93
2022-12-07T02:24:17.811Z,93.71
2022-12-07T02:26:37.484Z,93.38
2022-12-07T02:28:33.012Z,93.70
2022-12-07T02:30:13.407Z,93.74
2022-12-07T02:32:02.684Z,93.97
2022-12-07T02:33:49.253Z,93.89
2022-12-07T02:35:31.986Z,93.94
2022-12-07T02:37:14.802Z,94.01
2022-12-07T02:38:57.533Z,94.05
2022-12-07T02:40:37.190Z,94.12
2022-12-07T02:42:15.618Z,93.89
2022-12-07T02:43:50.888Z,94.13
2022-12-07T02:45:24.246Z,94.17
2022-12-07T02:47:06.462Z,94.03
2022-12-07T02:48:39.442Z,94.09
2022-12-07T02:50:11.894Z,94.06
2022-12-07T02:51:45.109Z,94.02
2022-12-07T02:53:46.290Z,93.87
2022-12-07T02:55:21.705Z,93.89
2022-12-07T02:57:11.934Z,93.78
2022-12-07T02:59:08.600Z,94.00
2022-12-07T03:01:10.119Z,93.64
2022-12-07T03:03:01.269Z,93.63
2022-12-07T03:04:36.625Z,93.63
2022-12-07T03:06:22.128Z,93.61
2022-12-07T03:08:08.926Z,93.59
2022-12-07T03:10:01.925Z,93.60
2022-12-07T03:11:51.223Z,93.70
2022-12-07T03:13:35.067Z,93.79
2022-12-07T03:15:12.145Z,93.73
2022-12-07T03:16:56.917Z,93.62
2022-12-07T03:18:32.294Z,93.55
2022-12-07T03:20:06.335Z,93.46
2022-12-07T03:21:44.645Z,93.65
2022-12-07T03:23:17.766Z,93.80
2022-12-07T03:24:54.282Z,93.75
2022-12-07T03:26:32.595Z,93.75
2022-12-07T03:28:07.182Z,93.68
2022-12-07T03:29:48.153Z,93.70
2022-12-07T03:31:39.549Z,93.75
2022-12-07T03:33:15.630Z,93.71
2022-12-07T03:34:50.519Z,93.68
2022-12-07T03:36:40.555Z,93.66
2022-12-07T03:38:17.312Z,93.50
2022-12-07T03:40:08.436Z,93.63
2022-12-07T03:41:44.945Z,93.73
2022-12-07T03:43:18.717Z,93.90
2022-12-07T03:44:50.959Z,93.63
2022-12-07T03:47:00.411Z,93.54
2022-12-07T03:48:40.212Z,93.62
2022-12-07T03:50:15.228Z,93.48
2022-12-07T03:52:14.194Z,93.51
2022-12-07T03:53:55.246Z,93.29
2022-12-07T03:55:33.180Z,93.40
2022-12-07T03:57:06.137Z,93.48
2022-12-07T03:58:38.659Z,93.35
2022-12-07T04:00:12.089Z,92.93
2022-12-07T04:01:54.201Z,93.28
2022-12-07T04:03:26.333Z,93.18
2022-12-07T04:04:58.500Z,93.03
2022-12-07T04:06:30.440Z,92.95
2022-12-07T04:08:02.612Z,93.00
2022-12-07T04:09:34.644Z,92.70
2022-12-07T04:11:06.645Z,92.93
2022-12-07T04:12:38.678Z,92.65
2022-12-07T04:14:20.724Z,92.49
2022-12-07T04:15:52.886Z,92.32
2022-12-07T04:17:24.957Z,92.50
2022-12-07T04:18:56.978Z,92.43
2022-12-07T04:20:29.115Z,91.84
2022-12-07T04:22:02.839Z,92.12
2022-12-07T04:23:34.837Z,91.95
2022-12-07T04:25:07.481Z,91.71
2022-12-07T04:26:39.479Z,91.40
2022-12-07T04:28:11.456Z,91.42
2022-12-07T04:29:43.395Z,91.28
2022-12-07T04:31:15.396Z,91.47
2022-12-07T04:32:47.363Z,91.38
2022-12-07T04:36:05.819Z,91.19
2022-12-07T04:37:40.187Z,91.15
2022-12-07T04:39:21.594Z,91.21
2022-12-07T04:40:53.502Z,91.14
2022-12-07T04:42:25.509Z,91.42
2022-12-07T04:43:59.492Z,91.40
2022-12-07T04:45:31.731Z,90.80
2022-12-07T04:47:03.866Z,90.76
2022-12-07T04:48:36.044Z,90.48
2022-12-07T04:50:08.717Z,90.29
2022-12-07T04:51:41.119Z,90.21
2022-12-07T04:53:13.151Z,90.06
2022-12-07T04:54:45.232Z,90.41
2022-12-07T04:56:17.767Z,90.61
2022-12-07T04:57:50.045Z,90.93
2022-12-07T04:59:23.250Z,90.80
2022-12-07T05:00:56.853Z,90.79
2022-12-07T05:02:28.947Z,90.96
2022-12-07T05:05:34.888Z,91.36
2022-12-07T05:07:06.934Z,91.33
2022-12-07T05:08:39.120Z,91.64
2022-12-07T05:10:11.478Z,91.77
2022-12-07T05:11:44.567Z,91.93
2022-12-07T05:13:16.620Z,91.83
2022-12-07T05:14:48.590Z,91.76
2022-12-07T05:16:20.657Z,91.75
2022-12-07T05:17:53.602Z,92.01
2022-12-07T05:19:25.705Z,91.97
2022-12-07T05:20:57.916Z,91.94
2022-12-07T05:22:30.072Z,92.05
2022-12-07T05:24:02.255Z,92.11
2022-12-07T05:25:34.384Z,92.05
2022-12-07T05:27:06.418Z,92.02
2022-12-07T05:28:39.483Z,91.93
2022-12-07T05:30:11.882Z,92.11
2022-12-07T05:31:44.418Z,92.00
2022-12-07T05:33:16.453Z,92.02
2022-12-07T05:34:48.847Z,91.67
2022-12-07T05:36:21.147Z,92.00
2022-12-07T05:37:53.173Z,91.78
2022-12-07T05:39:25.302Z,91.87
2022-12-07T05:41:02.557Z,91.74
2022-12-07T05:42:34.595Z,92.02
2022-12-07T05:44:06.777Z,91.99
2022-12-07T05:45:38.862Z,92.21
2022-12-07T05:47:11.998Z,92.08
2022-12-07T05:48:44.034Z,92.20
2022-12-07T05:50:16.071Z,92.19
2022-12-07T05:51:48.085Z,92.34
2022-12-07T05:53:23.292Z,92.04
2022-12-07T05:54:55.596Z,92.25
2022-12-07T05:56:28.454Z,92.35
2022-12-07T05:58:22.064Z,92.48
2022-12-07T05:59:54.033Z,92.62
2022-12-07T06:01:26.157Z,92.57
2022-12-07T06:03:09.998Z,92.54
2022-12-07T06:04:44.170Z,92.79
2022-12-07T06:06:16.399Z,92.88
2022-12-07T06:07:48.487Z,92.71
2022-12-07T06:09:22.218Z,92.68
2022-12-07T06:11:14.198Z,92.82
2022-12-07T06:12:47.572Z,92.84
2022-12-07T06:14:19.537Z,93.07
2022-12-07T06:15:51.584Z,92.88
2022-12-07T06:17:23.785Z,92.89
2022-12-07T06:18:55.842Z,92.97
2022-12-07T06:20:27.907Z,93.12
2022-12-07T06:22:00.276Z,93.16
2022-12-07T06:23:32.245Z,93.25
2022-12-07T06:25:08.594Z,93.17
2022-12-07T06:26:41.214Z,93.26
2022-12-07T06:28:13.225Z,93.46
2022-12-07T06:29:45.192Z,93.40
2022-12-07T06:31:17.426Z,93.48
2022-12-07T06:32:52.984Z,93.70
2022-12-07T06:34:26.097Z,93.58
2022-12-07T06:35:58.074Z,93.56
2022-12-07T06:37:30.148Z,93.59
2022-12-07T06:39:02.569Z,93.79
2022-12-07T06:40:34.639Z,93.48
2022-12-07T06:42:06.655Z,93.49
2022-12-07T06:43:39.692Z,93.75
2022-12-07T06:45:11.984Z,93.53
2022-12-07T06:46:44.090Z,93.24
2022-12-07T06:48:16.262Z,93.25
2022-12-07T06:49:48.422Z,93.20
2022-12-07T06:51:20.564Z,93.39
2022-12-07T06:52:53.262Z,93.40
2022-12-07T06:54:25.269Z,93.33
2022-12-07T06:55:57.253Z,93.17
2022-12-07T06:57:29.310Z,93.13
2022-12-07T06:59:01.371Z,93.13
2022-12-07T07:00:33.417Z,93.24
2022-12-07T07:02:05.435Z,93.22
2022-12-07T07:03:37.552Z,93.09
2022-12-07T07:05:09.884Z,92.99
2022-12-07T07:06:42.007Z,93.02
2022-12-07T07:08:22.783Z,93.00
2022-12-07T07:09:55.505Z,92.87
2022-12-07T07:11:29.879Z,93.00
2022-12-07T07:13:01.978Z,92.76
2022-12-07T07:14:34.254Z,92.59
2022-12-07T07:16:07.271Z,92.78
2022-12-07T07:17:39.354Z,92.81
2022-12-07T07:19:11.447Z,92.66
2022-12-07T07:20:43.519Z,92.62
2022-12-07T07:22:15.539Z,92.69
2022-12-07T07:45:10.456Z,92.02
2022-12-07T07:46:42.536Z,92.06
2022-12-07T07:48:14.659Z,92.30
2022-12-07T07:49:49.738Z,92.14
2022-12-07T07:51:21.814Z,91.96
2022-12-07T07:52:53.977Z,91.79
2022-12-07T07:54:26.077Z,91.45
2022-12-07T07:55:58.216Z,91.65
2022-12-07T07:57:30.182Z,91.88
2022-12-07T07:59:02.203Z,91.69
2022-12-07T08:00:34.224Z,91.75
2022-12-07T08:02:06.251Z,91.78
2022-12-07T08:03:38.336Z,91.27
2022-12-07T08:05:14.565Z,91.07
2022-12-07T08:06:46.673Z,91.27
2022-12-07T08:08:18.772Z,91.34
2022-12-07T08:09:50.852Z,90.93
2022-12-07T08:13:12.234Z,90.72
2022-12-07T08:14:44.387Z,90.45
2022-12-07T08:16:16.774Z,90.48
2022-12-07T08:17:48.852Z,90.46
2022-12-07T08:19:20.883Z,90.57
2022-12-07T08:20:53.018Z,90.41
2022-12-07T08:22:25.030Z,90.54
2022-12-07T08:23:58.622Z,90.03
2022-12-07T08:25:30.468Z,89.71
2022-12-07T08:27:02.927Z,89.79
2022-12-07T08:28:35.042Z,89.62
2022-12-07T08:30:07.638Z,89.35
2022-12-07T08:31:39.831Z,89.54
2022-12-07T08:33:12.736Z,89.63
2022-12-07T08:34:44.855Z,89.44
2022-12-07T08:36:17.490Z,89.25
2022-12-07T08:37:49.691Z,89.33
2022-12-07T08:39:36.953Z,89.21
2022-12-07T08:41:09.635Z,89.20
2022-12-07T08:42:41.892Z,89.06
2022-12-07T08:44:13.959Z,89.27
2022-12-07T08:45:46.015Z,89.12
2022-12-07T08:47:18.006Z,89.11
2022-12-07T08:48:56.542Z,88.64
2022-12-07T08:50:29.008Z,88.73
2022-12-07T08:52:01.048Z,88.64
2022-12-07T08:53:34.415Z,88.48
2022-12-07T08:55:06.864Z,88.49
2022-12-07T08:56:39.184Z,88.49
2022-12-07T08:58:14.427Z,88.34
2022-12-07T08:59:46.429Z,87.92
2022-12-07T09:01:18.535Z,87.52
2022-12-07T09:02:50.581Z,87.64
2022-12-07T09:04:22.716Z,87.50
2022-12-07T09:05:55.467Z,87.79
2022-12-07T09:07:27.945Z,87.73
2022-12-07T09:09:02.076Z,87.41
2022-12-07T09:10:34.122Z,87.47
2022-12-07T09:12:06.225Z,87.45
2022-12-07T09:13:38.423Z,87.26
2022-12-07T09:15:10.580Z,87.25
2022-12-07T09:16:42.669Z,87.03
2022-12-07T09:18:14.675Z,86.81
2022-12-07T09:19:46.768Z,86.67
2022-12-07T09:21:19.047Z,86.69
2022-12-07T09:22:51.214Z,86.23
2022-12-07T09:24:23.993Z,86.43
2022-12-07T09:25:56.010Z,86.22
2022-12-07T09:27:28.361Z,86.33
2022-12-07T09:29:00.275Z,86.20
2022-12-07T09:30:32.316Z,86.25
2022-12-07T09:32:09.862Z,86.14
2022-12-07T09:33:43.581Z,85.65
2022-12-07T09:35:15.675Z,85.40
2022-12-07T09:36:47.719Z,85.56
2022-12-07T09:38:20.609Z,85.20
2022-12-07T09:39:52.751Z,85.19
2022-12-07T09:41:26.093Z,85.06
2022-12-07T09:42:58.194Z,84.50
2022-12-07T09:44:30.393Z,84.16
2022-12-07T09:47:35.441Z,83.88
2022-12-07T09:49:16.231Z,83.75
2022-12-07T09:50:49.328Z,84.31
2022-12-07T09:52:34.283Z,84.54
2022-12-07T09:54:17.327Z,84.39
2022-12-07T09:55:49.431Z,84.63
2022-12-07T09:57:35.902Z,83.92
2022-12-07T09:59:13.938Z,84.06
2022-12-07T10:00:46.457Z,84.55
2022-12-07T10:02:39.768Z,83.70
2022-12-07T10:04:14.264Z,83.16
2022-12-07T10:05:48.137Z,83.13
2022-12-07T10:07:20.466Z,83.37
2022-12-07T10:08:52.523Z,82.45
2022-12-07T10:10:27.360Z,82.53
2022-12-07T10:12:17.994Z,82.61
2022-12-07T10:13:55.224Z,81.68
2022-12-07T10:17:00.850Z,82.16
2022-12-07T10:18:38.210Z,82.00
2022-12-07T10:20:21.126Z,81.81
2022-12-07T10:22:10.944Z,80.97
2022-12-07T10:24:03.170Z,81.15
2022-12-07T10:25:37.712Z,81.93
2022-12-07T10:27:32.042Z,81.39
2022-12-07T10:29:24.249Z,81.24
2022-12-07T10:31:06.666Z,80.89
2022-12-07T10:32:38.817Z,80.93
2022-12-07T10:34:35.189Z,80.04
2022-12-07T10:36:21.563Z,80.39
2022-12-07T10:37:57.153Z,80.45
2022-12-07T10:39:29.682Z,80.50
2022-12-07T10:41:08.770Z,79.92
2022-12-07T10:42:40.773Z,80.19
2022-12-07T10:44:23.001Z,79.92
2022-12-07T10:46:16.255Z,79.69
2022-12-07T10:48:01.617Z,79.01
2022-12-07T10:50:10.544Z,78.86
2022-12-07T10:51:48.165Z,78.88
2022-12-07T10:53:41.800Z,78.07
2022-12-07T10:55:23.604Z,77.25
2022-12-07T10:57:23.258Z,77.75
2022-12-07T10:59:01.443Z,76.60
2022-12-07T11:00:44.185Z,77.43
2022-12-07T11:02:22.854Z,77.67
2022-12-07T11:04:19.510Z,78.24
2022-12-07T11:06:16.284Z,78.53
2022-12-07T11:08:15.708Z,77.88
2022-12-07T11:10:08.419Z,77.90
2022-12-07T11:11:58.767Z,77.83
2022-12-07T11:13:36.713Z,77.78
2022-12-07T11:15:33.803Z,77.88
2022-12-07T11:17:19.720Z,78.42
2022-12-07T11:19:11.301Z,78.35
2022-12-07T11:20:54.733Z,78.42
2022-12-07T11:22:35.475Z,77.96
2022-12-07T11:24:13.280Z,78.48
2022-12-07T11:26:03.197Z,78.46
2022-12-07T11:27:43.251Z,78.27
2022-12-07T11:29:51.319Z,78.30
2022-12-07T11:31:55.773Z,78.49
2022-12-07T11:33:53.583Z,78.31
2022-12-07T11:35:46.478Z,78.17
2022-12-07T11:37:26.240Z,78.61
2022-12-07T11:39:02.102Z,78.61
2022-12-07T11:40:38.299Z,78.82
2022-12-07T11:42:21.596Z,78.79
2022-12-07T11:44:00.378Z,78.74
2022-12-07T11:45:35.132Z,80.31
2022-12-07T11:47:39.628Z,80.36
2022-12-07T11:49:26.329Z,79.93
2022-12-07T11:51:00.174Z,79.47
2022-12-07T11:52:44.080Z,78.84
2022-12-07T11:54:20.721Z,79.52
2022-12-07T11:56:10.712Z,78.63
2022-12-07T11:57:47.597Z,78.42
2022-12-07T11:59:30.333Z,78.56
2022-12-07T12:02:41.131Z,78.12
2022-12-07T12:04:13.222Z,78.32
2022-12-07T12:05:45.307Z,78.67
2022-12-07T12:09:39.327Z,78.35
2022-12-07T12:11:45.412Z,79.00
2022-12-07T12:15:44.357Z,78.67
2022-12-07T12:17:22.193Z,78.34
2022-12-07T12:19:06.292Z,78.29
2022-12-07T12:20:44.139Z,78.43
2022-12-07T12:22:20.402Z,78.88
2022-12-07T12:24:10.588Z,78.84
2022-12-07T12:26:04.457Z,79.00
2022-12-07T12:27:38.715Z,78.93
2022-12-07T12:31:20.111Z,79.99
2022-12-07T12:32:53.018Z,79.77
2022-12-07T12:34:53.679Z,79.75
2022-12-07T12:36:27.773Z,80.22
2022-12-07T12:38:28.243Z,79.83
2022-12-07T12:40:15.597Z,79.66
2022-12-07T12:41:50.212Z,79.33
2022-12-07T12:43:41.971Z,79.63
2022-12-07T12:45:25.772Z,79.73
2022-12-07T12:46:58.868Z,79.87
2022-12-07T12:48:37.341Z,80.42
2022-12-07T12:50:23.513Z,81.02
2022-12-07T12:52:14.542Z,81.93
2022-12-07T12:53:47.529Z,81.97
2022-12-07T12:55:22.655Z,82.99
2022-12-07T12:57:25.316Z,82.52
2022-12-07T12:59:38.304Z,82.01
2022-12-07T13:01:28.785Z,81.95
2022-12-07T13:03:01.082Z,82.06
2022-12-07T13:04:48.951Z,82.04
2022-12-07T13:06:36.857Z,82.40
2022-12-07T13:08:31.914Z,82.24
2022-12-07T13:10:25.815Z,82.66
2022-12-07T13:12:03.348Z,83.64
2022-12-07T13:13:36.824Z,83.41
2022-12-07T13:15:26.851Z,83.02
2022-12-07T13:16:59.149Z,83.35
2022-12-07T13:18:33.914Z,83.15
2022-12-07T13:20:11.610Z,83.25
2022-12-07T13:21:49.285Z,83.25
2022-12-07T13:23:25.237Z,83.30
2022-12-07T13:25:43.744Z,83.11
2022-12-07T13:27:15.832Z,83.11
2022-12-07T13:28:53.398Z,83.33
2022-12-07T15:02:29.676Z,88.17
2022-12-07T15:04:01.767Z,88.66
2022-12-07T15:05:34.782Z,88.81
2022-12-07T15:07:11.234Z,88.76
2022-12-07T15:08:45.431Z,89.00
2022-12-07T15:10:24.413Z,89.15
2022-12-07T15:11:56.643Z,89.73
2022-12-07T15:13:47.431Z,89.84
2022-12-07T15:15:19.483Z,90.12
2022-12-07T15:17:08.998Z,89.98
2022-12-07T15:18:48.613Z,89.84
2022-12-07T15:20:30.578Z,89.77
2022-12-07T15:22:02.702Z,89.61
2022-12-07T15:23:34.714Z,89.82
2022-12-07T15:25:07.362Z,89.77
2022-12-07T15:26:40.671Z,89.61
2022-12-07T15:28:12.757Z,89.67
2022-12-07T15:29:44.845Z,89.71
2022-12-07T15:31:53.242Z,89.35
2022-12-07T15:33:11.558Z,89.40
2022-12-07T15:34:43.606Z,89.58
2022-12-07T15:36:24.304Z,89.70
2022-12-07T15:37:56.335Z,89.69
2022-12-07T15:39:28.480Z,89.91
2022-12-07T15:41:00.504Z,90.00
2022-12-07T15:42:32.471Z,89.77
2022-12-07T15:44:26.317Z,89.80
2022-12-07T15:46:02.781Z,89.92
2022-12-07T15:48:03.969Z,90.23
2022-12-07T15:49:32.658Z,90.01
2022-12-07T15:51:06.218Z,89.92
2022-12-07T15:52:38.086Z,89.81
2022-12-07T15:54:30.659Z,90.00
2022-12-07T15:56:03.080Z,90.09
2022-12-07T15:57:38.221Z,89.97
2022-12-07T15:59:10.244Z,90.17
2022-12-07T16:00:42.613Z,90.18
2022-12-07T16:02:15.216Z,90.26
2022-12-07T16:03:47.846Z,90.24
2022-12-07T16:05:19.912Z,90.28
2022-12-07T16:06:52.347Z,90.27
2022-12-07T16:08:24.472Z,89.98
2022-12-07T16:09:56.576Z,89.98
2022-12-07T16:11:28.978Z,90.30
2022-12-07T16:13:01.008Z,90.21
2022-12-07T16:14:34.529Z,90.51
2022-12-07T16:16:07.577Z,90.23
2022-12-07T16:17:39.683Z,90.43
2022-12-07T16:19:12.352Z,90.49
2022-12-07T16:20:44.411Z,90.66
2022-12-07T16:22:16.408Z,90.80
2022-12-07T16:23:48.468Z,90.67
2022-12-07T16:25:20.655Z,90.37
2022-12-07T16:26:52.920Z,90.38
2022-12-07T16:28:24.975Z,90.39
2022-12-07T16:29:57.137Z,90.43
2022-12-07T16:31:29.974Z,90.49
2022-12-07T16:33:02.781Z,90.46
2022-12-07T16:34:34.960Z,90.52
2022-12-07T16:36:08.856Z,90.48
2022-12-07T16:37:43.296Z,90.45
2022-12-07T16:39:15.633Z,90.29
2022-12-07T16:40:48.789Z,90.21
2022-12-07T16:42:20.863Z,90.36
2022-12-07T16:43:53.102Z,90.31
2022-12-07T16:45:25.098Z,90.18
2022-12-07T16:46:57.385Z,90.23
2022-12-07T16:48:29.456Z,90.13
2022-12-07T16:50:01.518Z,90.25
2022-12-07T16:51:35.992Z,90.48
2022-12-07T16:53:12.109Z,90.49
2022-12-07T16:54:44.278Z,90.47
2022-12-07T16:56:17.903Z,90.51
2022-12-07T16:57:49.683Z,90.35
2022-12-07T16:59:21.983Z,90.52
2022-12-07T17:00:54.050Z,90.63
2022-12-07T17:02:26.524Z,90.46
2022-12-07T17:04:00.743Z,90.12
2022-12-07T17:05:32.959Z,90.03
2022-12-07T17:07:04.977Z,89.93
2022-12-07T17:08:36.984Z,90.00
2022-12-07T17:10:09.629Z,90.07
2022-12-07T17:11:45.290Z,90.17
2022-12-07T17:13:35.883Z,90.31
2022-12-07T17:15:22.209Z,90.09
2022-12-07T17:16:54.393Z,90.14
2022-12-07T17:18:28.972Z,90.42
2022-12-07T17:20:01.136Z,90.50
2022-12-07T17:21:35.598Z,90.44
2022-12-07T17:23:07.553Z,90.43
2022-12-07T17:24:40.142Z,90.34
2022-12-07T17:26:15.701Z,90.63
2022-12-07T17:27:48.102Z,90.62
2022-12-07T17:29:20.479Z,90.77
2022-12-07T17:30:52.466Z,90.90
2022-12-07T17:32:24.639Z,91.09
2022-12-07T17:33:56.623Z,91.20
2022-12-07T17:35:28.646Z,91.52
2022-12-07T17:37:00.766Z,91.48
2022-12-07T17:38:32.839Z,91.41
2022-12-07T17:40:06.280Z,91.63
2022-12-07T17:41:57.249Z,91.38
2022-12-07T17:43:29.345Z,91.37
2022-12-07T17:45:01.673Z,91.63
2022-12-07T17:46:34.365Z,91.97
2022-12-07T17:48:06.433Z,91.90
2022-12-07T17:49:38.499Z,91.86
2022-12-07T17:51:29.224Z,91.98
2022-12-07T17:53:13.588Z,92.14
2022-12-07T17:54:45.609Z,92.16
2022-12-07T17:56:34.173Z,92.23
2022-12-07T17:58:07.076Z,92.29
2022-12-07T17:59:39.118Z,92.31
2022-12-07T18:01:11.724Z,92.41
2022-12-07T18:02:43.896Z,92.47
2022-12-07T18:04:15.940Z,92.17
2022-12-07T18:05:49.366Z,92.26
2022-12-07T18:07:21.437Z,92.41
2022-12-07T18:08:53.722Z,92.43
2022-12-07T18:10:25.870Z,92.50
2022-12-07T18:11:58.006Z,92.46
2022-12-07T18:13:39.155Z,92.47
2022-12-07T18:15:11.380Z,92.58
2022-12-07T18:16:43.517Z,92.66
2022-12-07T18:18:15.610Z,93.18
2022-12-07T18:19:47.793Z,93.40
2022-12-07T18:21:25.245Z,93.60
2022-12-07T18:22:57.637Z,93.52
2022-12-07T18:24:36.266Z,93.57
2022-12-07T18:26:08.712Z,93.88
2022-12-07T18:27:41.300Z,93.86
2022-12-07T18:29:15.357Z,93.68
2022-12-07T18:32:45.322Z,93.62
2022-12-07T18:34:18.765Z,93.88
2022-12-07T18:35:51.073Z,93.94
2022-12-07T18:37:27.758Z,93.77
2022-12-07T18:38:59.922Z,93.80
2022-12-07T18:40:31.955Z,94.05
2022-12-07T18:42:04.187Z,94.00
2022-12-07T18:43:39.394Z,94.14
2022-12-07T18:45:11.890Z,94.11
2022-12-07T18:46:44.082Z,94.02
2022-12-07T18:48:17.020Z,94.20
2022-12-07T18:49:49.020Z,94.29
2022-12-07T18:51:21.051Z,94.06
2022-12-07T18:52:53.046Z,94.16
2022-12-07T18:54:25.613Z,94.19
2022-12-07T18:56:21.660Z,94.00
2022-12-07T18:57:54.305Z,94.26
2022-12-07T18:59:44.852Z,94.09
2022-12-07T19:01:16.937Z,94.29
2022-12-07T19:02:49.093Z,94.19
2022-12-07T19:04:21.562Z,94.16
2022-12-07T19:05:56.671Z,94.39
2022-12-07T19:07:32.273Z,94.59
2022-12-07T19:09:05.055Z,94.39
2022-12-07T19:10:37.118Z,94.50
2022-12-07T19:12:13.084Z,94.43
2022-12-07T19:13:45.108Z,94.66
2022-12-07T19:15:17.388Z,94.61
2022-12-07T19:16:50.916Z,94.50
2022-12-07T19:18:22.844Z,94.39
2022-12-07T19:19:54.951Z,94.58
2022-12-07T19:21:28.484Z,94.66
2022-12-07T19:23:00.363Z,94.60
2022-12-07T19:24:32.710Z,94.76
2022-12-07T19:27:37.564Z,94.92
2022-12-07T19:29:09.614Z,94.87
2022-12-07T19:30:41.664Z,95.12
2022-12-07T19:32:14.483Z,95.12
2022-12-07T19:33:46.818Z,95.04
2022-12-07T19:35:18.979Z,94.84
2022-12-07T19:36:51.238Z,94.93
2022-12-07T19:38:23.228Z,94.85
2022-12-07T19:39:55.351Z,95.10
2022-12-07T19:41:36.564Z,95.16
2022-12-07T19:43:08.804Z,95.43
2022-12-07T19:44:41.275Z,95.48
2022-12-07T19:46:15.059Z,95.62
2022-12-07T19:47:50.607Z,95.72
2022-12-07T19:49:24.436Z,95.89
2022-12-07T19:50:56.424Z,96.04
2022-12-07T19:52:30.966Z,95.96
2022-12-07T19:54:07.167Z,96.02
2022-12-07T19:55:43.584Z,96.11
2022-12-07T19:57:16.747Z,96.26
2022-12-07T19:58:49.274Z,96.13
2022-12-07T20:01:53.678Z,96.41
2022-12-07T20:03:27.395Z,96.19
2022-12-07T20:05:04.491Z,96.25
2022-12-07T20:06:38.364Z,95.95
2022-12-07T20:08:10.439Z,95.95
2022-12-07T20:09:42.556Z,96.22
2022-12-07T20:11:34.266Z,96.19
2022-12-07T20:13:24.965Z,96.07
2022-12-07T20:14:57.058Z,96.30
2022-12-07T20:16:29.185Z,96.09
2022-12-07T20:18:01.193Z,96.19
2022-12-07T20:19:33.425Z,96.30
2022-12-07T20:21:05.659Z,96.26
2022-12-07T20:22:37.666Z,95.91
2022-12-07T20:24:14.453Z,96.08
2022-12-07T20:25:46.694Z,95.90
2022-12-07T20:27:18.809Z,96.05
2022-12-07T20:28:50.849Z,95.98
2022-12-07T20:30:22.832Z,96.21
2022-12-07T20:31:56.050Z,96.13
2022-12-07T20:33:29.369Z,95.95
2022-12-07T20:35:01.758Z,96.03
2022-12-07T20:36:34.055Z,96.13
2022-12-07T20:38:06.183Z,95.95
2022-12-07T20:39:38.478Z,95.66
2022-12-07T20:41:30.601Z,95.74
2022-12-07T20:43:03.034Z,95.45
2022-12-07T20:44:36.072Z,95.68
2022-12-07T20:46:08.395Z,95.47
2022-12-07T20:47:40.671Z,95.68
2022-12-07T20:49:15.779Z,95.47
2022-12-07T20:50:47.860Z,95.29
2022-12-07T20:52:21.881Z,95.37
2022-12-07T20:53:53.931Z,95.67
2022-12-07T20:55:26.030Z,95.52
2022-12-07T20:56:58.284Z,95.57
2022-12-07T20:58:30.304Z,95.42
2022-12-07T21:00:02.769Z,95.58
2022-12-07T21:01:34.931Z,95.37
2022-12-07T21:03:07.071Z,95.47
2022-12-07T21:06:16.533Z,95.49
2022-12-07T21:07:48.682Z,95.42
2022-12-07T21:09:26.982Z,95.59
2022-12-07T21:10:58.994Z,95.52
2022-12-07T21:12:31.045Z,95.62
2022-12-07T21:14:03.185Z,95.56
2022-12-07T21:15:35.490Z,95.57
2022-12-07T21:17:07.620Z,95.57
2022-12-07T21:18:40.928Z,95.23
2022-12-07T21:20:13.128Z,95.48
2022-12-07T21:21:45.175Z,95.33
2022-12-07T21:23:17.166Z,95.55
2022-12-07T21:24:49.411Z,95.65
2022-12-07T21:26:24.151Z,95.72
2022-12-07T21:27:56.358Z,95.54
2022-12-07T21:29:42.644Z,95.65
2022-12-07T21:31:16.592Z,95.36
2022-12-07T21:32:48.679Z,95.51
2022-12-07T21:35:58.803Z,95.38
2022-12-07T21:37:30.845Z,95.54
2022-12-07T21:39:03.358Z,95.41
2022-12-07T21:40:35.409Z,95.39
2022-12-07T21:42:07.565Z,95.51
2022-12-07T21:43:39.722Z,95.35
2022-12-07T21:45:11.819Z,95.67
2022-12-07T21:46:43.864Z,95.54
2022-12-07T21:48:15.950Z,95.51
2022-12-07T21:49:47.993Z,95.57
2022-12-07T21:51:23.928Z,95.50
2022-12-07T21:52:55.986Z,95.55
2022-12-07T21:54:28.177Z,95.72
2022-12-07T21:56:00.461Z,95.52
2022-12-07T21:57:34.617Z,95.75
2022-12-07T21:59:09.259Z,95.70
2022-12-07T22:00:41.301Z,95.56
2022-12-07T22:02:14.654Z,95.74
2022-12-07T22:03:47.254Z,95.62
2022-12-07T22:05:19.334Z,95.76
2022-12-07T22:06:52.739Z,95.52
2022-12-07T22:08:24.843Z,95.65
2022-12-07T22:09:56.914Z,95.71
2022-12-07T22:11:29.063Z,95.69
2022-12-07T22:13:01.662Z,95.75
2022-12-07T22:14:52.304Z,95.76
2022-12-07T22:16:24.629Z,95.88
2022-12-07T22:17:56.675Z,95.92
2022-12-07T22:19:28.720Z,95.92
2022-12-07T22:21:00.898Z,96.13
2022-12-07T22:22:32.946Z,95.93
2022-12-07T22:24:05.772Z,95.93
2022-12-07T22:25:40.866Z,95.93
2022-12-07T22:27:12.927Z,95.83
2022-12-07T22:28:45.709Z,95.93
2022-12-07T22:30:17.856Z,95.93
2022-12-07T22:31:53.656Z,96.05
2022-12-07T22:35:04.258Z,95.77
2022-12-07T22:36:37.120Z,95.63
2022-12-07T22:38:14.190Z,95.54
2022-12-07T22:39:47.548Z,95.58
2022-12-07T22:41:28.088Z,95.71
2022-12-07T22:43:00.099Z,95.82
2022-12-07T22:44:32.218Z,95.90
2022-12-07T22:46:04.677Z,95.76
2022-12-07T22:47:36.886Z,95.75
2022-12-07T22:49:08.882Z,95.80
2022-12-07T22:50:40.856Z,95.74
2022-12-07T22:52:12.944Z,95.90
2022-12-07T22:53:47.277Z,95.94
2022-12-07T22:55:19.287Z,95.64
2022-12-07T22:56:51.332Z,95.77